createdAt,value
2019-05-10T00:00:50.329Z,30.83
2019-05-10T00:03:37.578Z,34.93
2019-05-10T00:06:25.747Z,34.33
2019-05-10T00:08:54.817Z,36.10
2019-05-10T00:11:34.783Z,38.60
2019-05-10T00:14:27.783Z,38.13
2019-05-10T00:17:16.950Z,40.10
2019-05-10T00:19:46.966Z,47.67
2019-05-10T00:22:17.349Z,43.50
2019-05-10T00:25:02.094Z,33.87
2019-05-10T00:27:19.166Z,37.30
2019-05-10T00:29:49.183Z,38.70
2019-05-10T00:32:19.335Z,38.60
2019-05-10T00:34:49.573Z,39.90
2019-05-10T00:37:19.730Z,41.37
2019-05-10T00:39:50.028Z,40.27
2019-05-10T00:42:20.184Z,43.33
2019-05-10T00:44:50.207Z,43.80
2019-05-10T00:47:20.105Z,47.23
2019-05-10T00:49:50.441Z,47.07
2019-05-10T00:52:20.678Z,44.73
2019-05-10T00:54:50.946Z,43.60
2019-05-10T00:57:21.751Z,40.27
2019-05-10T00:59:51.837Z,40.50
2019-05-10T01:02:22.176Z,39.33
2019-05-10T01:04:52.374Z,40.70
2019-05-10T01:07:22.499Z,37.07
2019-05-10T01:09:52.620Z,38.53
2019-05-10T01:12:22.533Z,37.73
2019-05-10T01:14:52.455Z,38.00
2019-05-10T01:17:22.734Z,38.13
2019-05-10T01:19:52.950Z,41.83
2019-05-10T01:22:23.154Z,40.00
2019-05-10T01:24:53.393Z,39.23
2019-05-10T01:27:23.345Z,37.33
2019-05-10T01:29:53.230Z,39.23
2019-05-10T01:32:23.437Z,35.40
2019-05-10T01:34:53.594Z,34.23
2019-05-10T01:37:23.619Z,32.37
2019-05-10T01:39:53.636Z,35.90
2019-05-10T01:42:23.891Z,37.90
2019-05-10T01:44:54.131Z,31.97
2019-05-10T01:47:24.197Z,32.13
2019-05-10T01:49:54.352Z,35.47
2019-05-10T01:52:24.486Z,32.43
2019-05-10T01:54:54.438Z,35.43
2019-05-10T01:57:25.241Z,32.10
2019-05-10T01:59:55.111Z,32.10
2019-05-10T02:02:25.386Z,35.93
2019-05-10T02:04:55.245Z,34.37
2019-05-10T02:07:25.247Z,32.00
2019-05-10T02:09:55.265Z,32.50
2019-05-10T02:12:25.209Z,30.77
2019-05-10T02:14:55.390Z,31.07
2019-05-10T02:17:25.717Z,30.73
2019-05-10T02:19:55.980Z,32.17
2019-05-10T02:22:25.961Z,35.03
2019-05-10T02:24:55.886Z,29.10
2019-05-10T02:27:25.773Z,30.70
2019-05-10T02:29:55.624Z,28.43
2019-05-10T02:32:25.935Z,29.97
2019-05-10T02:34:56.136Z,30.57
2019-05-10T02:37:26.011Z,30.50
2019-05-10T02:39:56.225Z,32.60
2019-05-10T02:42:26.195Z,33.10
2019-05-10T02:44:56.110Z,35.00
2019-05-10T02:47:26.385Z,35.60
2019-05-10T02:49:59.142Z,34.00
2019-05-10T02:52:28.157Z,35.67
2019-05-10T02:54:58.188Z,33.63
2019-05-10T02:57:29.120Z,36.60
2019-05-10T02:59:59.998Z,36.80
2019-05-10T03:02:30.771Z,32.47
2019-05-10T03:05:01.548Z,31.27
2019-05-10T03:07:34.149Z,34.47
2019-05-10T03:10:05.642Z,37.30
2019-05-10T03:12:38.546Z,32.97
2019-05-10T03:15:09.002Z,33.97
2019-05-10T03:17:40.914Z,35.80
2019-05-10T03:20:13.208Z,34.07
2019-05-10T03:22:44.191Z,32.90
2019-05-10T03:25:14.883Z,34.10
2019-05-10T03:27:45.291Z,38.30
2019-05-10T03:30:15.431Z,41.30
2019-05-10T03:32:57.288Z,40.47
2019-05-10T03:35:41.148Z,44.93
2019-05-10T03:38:12.353Z,35.13
2019-05-10T03:40:42.640Z,38.43
2019-05-10T03:43:12.804Z,30.93
2019-05-10T03:45:43.200Z,32.03
2019-05-10T03:48:13.408Z,33.37
2019-05-10T03:50:43.567Z,36.20
2019-05-10T03:53:13.786Z,33.57
2019-05-10T03:55:44.035Z,39.43
2019-05-10T03:58:15.336Z,43.17
2019-05-10T04:00:45.733Z,40.07
2019-05-10T04:03:16.012Z,38.10
2019-05-10T04:05:46.226Z,38.27
2019-05-10T04:08:16.478Z,36.33
2019-05-10T04:10:46.650Z,41.93
2019-05-10T04:13:17.022Z,42.10
2019-05-10T04:15:48.575Z,41.10
2019-05-10T04:18:24.080Z,46.60
2019-05-10T04:20:58.054Z,46.37
2019-05-10T04:23:29.894Z,59.43
2019-05-10T04:26:01.921Z,51.93
2019-05-10T04:28:34.570Z,54.57
2019-05-10T04:31:06.627Z,66.00
2019-05-10T04:33:36.607Z,65.03
2019-05-10T04:36:11.996Z,69.03
2019-05-10T04:38:38.399Z,78.63
2019-05-10T04:41:08.340Z,73.10
2019-05-10T04:43:38.464Z,70.93
2019-05-10T04:46:08.731Z,79.43
2019-05-10T04:48:38.813Z,69.53
2019-05-10T04:51:08.916Z,74.73
2019-05-10T04:53:39.040Z,65.83
2019-05-10T04:56:09.292Z,71.87
2019-05-10T04:58:39.182Z,65.17
2019-05-10T05:01:10.313Z,70.60
2019-05-10T05:03:40.526Z,67.30
2019-05-10T05:06:10.739Z,68.80
2019-05-10T05:08:40.672Z,73.20
2019-05-10T05:11:10.502Z,69.53
2019-05-10T05:13:40.601Z,70.20
2019-05-10T05:16:10.499Z,65.90
2019-05-10T05:18:40.390Z,63.93
2019-05-10T05:21:10.243Z,64.70
2019-05-10T05:23:40.179Z,66.50
2019-05-10T05:26:10.136Z,66.33
2019-05-10T05:28:40.068Z,65.17
2019-05-10T05:31:10.043Z,71.67
2019-05-10T05:33:40.322Z,69.37
2019-05-10T05:36:11.885Z,65.70
2019-05-10T05:38:46.912Z,63.57
2019-05-10T05:41:15.681Z,64.80
2019-05-10T05:43:46.826Z,65.60
2019-05-10T05:46:17.338Z,64.67
2019-05-10T05:48:47.230Z,62.37
2019-05-10T05:51:17.694Z,61.83
2019-05-10T05:53:47.916Z,59.53
2019-05-10T05:56:18.167Z,61.73
2019-05-10T05:58:48.461Z,62.27
2019-05-10T06:01:26.196Z,57.43
2019-05-10T06:03:50.964Z,58.97
2019-05-10T06:06:32.041Z,60.63
2019-05-10T06:09:01.982Z,59.03
2019-05-10T06:11:35.681Z,59.63
2019-05-10T06:14:09.719Z,53.87
2019-05-10T06:16:34.972Z,54.87
2019-05-10T06:19:29.039Z,54.50
2019-05-10T06:21:57.960Z,50.23
2019-05-10T06:24:25.154Z,50.13
2019-05-10T06:26:58.190Z,48.40
2019-05-10T06:29:26.810Z,48.53
2019-05-10T06:31:59.967Z,49.77
2019-05-10T06:34:32.077Z,51.43
2019-05-10T06:37:02.240Z,50.60
2019-05-10T06:39:34.487Z,45.27
2019-05-10T06:42:11.195Z,44.80
2019-05-10T06:44:41.206Z,44.53
2019-05-10T06:47:11.436Z,44.90
2019-05-10T06:49:50.523Z,43.93
2019-05-10T06:52:16.086Z,43.47
2019-05-10T06:54:44.529Z,43.60
2019-05-10T06:57:17.733Z,46.80
2019-05-10T06:59:46.306Z,46.20
2019-05-10T07:02:20.208Z,44.40
2019-05-10T07:04:48.661Z,46.03
2019-05-10T07:07:33.068Z,42.07
2019-05-10T07:10:15.747Z,42.07
2019-05-10T07:12:22.163Z,39.80
2019-05-10T07:14:52.038Z,40.50
2019-05-10T07:17:27.714Z,38.27
2019-05-10T07:19:57.639Z,39.23
2019-05-10T07:22:29.042Z,39.13
2019-05-10T07:25:04.093Z,43.87
2019-05-10T07:27:36.517Z,42.07
2019-05-10T07:30:06.521Z,41.23
2019-05-10T07:32:49.297Z,39.90
2019-05-10T07:35:19.272Z,33.47
2019-05-10T07:37:51.765Z,35.83
2019-05-10T07:40:20.666Z,40.10
2019-05-10T07:42:50.589Z,38.70
2019-05-10T07:45:25.505Z,39.00
2019-05-10T07:47:52.459Z,36.00
2019-05-10T07:50:22.474Z,32.03
2019-05-10T07:52:52.378Z,32.97
2019-05-10T07:55:27.664Z,33.17
2019-05-10T07:57:59.226Z,31.33
2019-05-10T08:00:25.608Z,33.20
2019-05-10T08:03:06.357Z,35.20
2019-05-10T08:05:29.584Z,31.87
2019-05-10T08:07:59.678Z,33.27
2019-05-10T08:10:29.574Z,32.90
2019-05-10T08:13:03.220Z,30.83
2019-05-10T08:15:34.758Z,28.43
2019-05-10T08:18:02.823Z,28.27
2019-05-10T08:20:46.387Z,25.37
2019-05-10T08:23:04.197Z,25.63
2019-05-10T08:25:36.316Z,27.17
2019-05-10T08:28:05.656Z,24.83
2019-05-10T08:30:42.551Z,22.80
2019-05-10T08:33:12.033Z,23.47
2019-05-10T08:35:45.574Z,22.13
2019-05-10T08:38:13.555Z,22.43
2019-05-10T08:40:43.446Z,21.33
2019-05-10T08:43:16.666Z,21.60
2019-05-10T08:45:49.268Z,21.90
2019-05-10T08:48:16.435Z,21.80
2019-05-10T08:50:54.228Z,22.07
2019-05-10T08:53:17.847Z,24.20
2019-05-10T08:55:47.755Z,22.90
2019-05-10T08:58:21.703Z,22.27
2019-05-10T09:00:55.089Z,21.30
2019-05-10T09:03:22.723Z,22.43
2019-05-10T09:05:52.635Z,20.37
2019-05-10T09:08:27.696Z,23.80
2019-05-10T09:10:55.239Z,20.63
2019-05-10T09:13:28.711Z,23.63
2019-05-10T09:15:57.120Z,23.57
2019-05-10T09:18:27.148Z,22.37
2019-05-10T09:21:00.407Z,23.63
2019-05-10T09:23:28.692Z,23.93
2019-05-10T09:26:03.609Z,22.93
2019-05-10T09:28:32.157Z,26.10
2019-05-10T09:31:17.515Z,25.47
2019-05-10T09:33:33.192Z,25.33
2019-05-10T09:36:03.106Z,26.70
2019-05-10T09:38:34.763Z,30.43
2019-05-10T09:41:04.654Z,28.60
2019-05-10T09:43:34.506Z,29.17
2019-05-10T09:46:04.587Z,30.47
2019-05-10T09:48:34.447Z,29.93
2019-05-10T09:51:04.582Z,28.93
2019-05-10T09:53:34.633Z,29.77
2019-05-10T09:56:04.870Z,32.87
2019-05-10T09:58:34.847Z,32.57
2019-05-10T10:01:16.840Z,34.17
2019-05-10T10:03:43.150Z,29.50
2019-05-10T10:06:11.150Z,31.37
2019-05-10T10:08:43.599Z,32.10
2019-05-10T10:11:15.861Z,31.73
2019-05-10T10:13:48.846Z,32.40
2019-05-10T10:16:15.215Z,29.97
2019-05-10T10:18:47.523Z,34.20
2019-05-10T10:21:18.835Z,32.10
2019-05-10T10:23:48.173Z,33.67
2019-05-10T10:26:22.201Z,32.70
2019-05-10T10:28:54.829Z,32.88
2019-05-10T10:31:29.709Z,32.30
2019-05-10T10:33:59.540Z,33.38
2019-05-10T10:36:27.417Z,33.33
2019-05-10T10:38:57.655Z,31.12
2019-05-10T10:41:31.788Z,29.72
2019-05-10T10:43:59.142Z,31.33
2019-05-10T10:46:29.102Z,30.45
2019-05-10T10:48:59.066Z,28.57
2019-05-10T10:51:32.044Z,27.32
2019-05-10T10:54:00.556Z,29.50
2019-05-10T10:56:30.462Z,27.75
2019-05-10T10:59:00.387Z,28.42
2019-05-10T11:01:46.225Z,28.17
2019-05-10T11:04:07.868Z,27.45
2019-05-10T11:06:33.750Z,25.88
2019-05-10T11:09:05.689Z,29.32
2019-05-10T11:11:44.438Z,26.55
2019-05-10T11:14:08.154Z,24.40
2019-05-10T11:16:38.075Z,30.40
2019-05-10T11:19:11.219Z,27.75
2019-05-10T11:21:41.536Z,28.12
2019-05-10T11:24:18.064Z,28.10
2019-05-10T11:26:44.948Z,26.97
2019-05-10T11:29:25.445Z,24.98
2019-05-10T11:31:49.999Z,25.05
2019-05-10T11:34:37.554Z,24.70
2019-05-10T11:37:01.530Z,27.00
2019-05-10T11:39:33.212Z,24.87
2019-05-10T11:42:07.268Z,20.65
2019-05-10T11:44:35.109Z,23.05
2019-05-10T11:47:22.476Z,20.32
2019-05-10T11:49:40.623Z,21.87
2019-05-10T11:52:13.171Z,21.33
2019-05-10T11:54:42.704Z,18.77
2019-05-10T11:57:13.735Z,16.93
2019-05-10T11:59:44.478Z,17.80
2019-05-10T12:04:45.866Z,15.90
2019-05-10T12:07:23.901Z,15.08
2019-05-10T12:09:53.338Z,16.12
2019-05-10T12:12:29.674Z,14.40
2019-05-10T12:14:54.149Z,14.03
2019-05-10T12:17:24.619Z,12.88
2019-05-10T12:19:56.228Z,13.72
2019-05-10T12:22:32.175Z,12.93
2019-05-10T12:25:20.729Z,10.72
2019-05-10T12:26:06.014Z,16.37
2019-05-10T12:27:44.370Z,11.60
2019-05-10T12:30:03.343Z,12.55
2019-05-10T12:32:37.019Z,12.47
2019-05-10T12:35:05.068Z,14.33
2019-05-10T12:37:39.515Z,16.15
2019-05-10T12:40:11.796Z,15.05
2019-05-10T12:42:47.091Z,15.10
2019-05-10T12:45:17.523Z,16.02
2019-05-10T12:47:47.386Z,16.70
2019-05-10T12:50:17.401Z,15.65
2019-05-10T12:52:50.561Z,15.00
2019-05-10T12:55:18.810Z,14.30
2019-05-10T12:57:48.730Z,14.95
2019-05-10T13:00:18.929Z,12.75
2019-05-10T13:02:53.507Z,11.93
2019-05-10T13:05:31.251Z,11.50
2019-05-10T13:07:51.874Z,11.10
2019-05-10T13:10:22.296Z,12.05
2019-05-10T13:12:52.898Z,10.15
2019-05-10T13:15:24.721Z,11.60
2019-05-10T13:17:55.417Z,15.68
2019-05-10T13:20:25.633Z,15.93
2019-05-10T13:22:55.506Z,13.90
2019-05-10T13:25:25.374Z,13.55
2019-05-10T13:27:55.307Z,14.00
2019-05-10T13:30:28.078Z,13.90
2019-05-10T13:32:58.586Z,13.50
2019-05-10T13:35:28.385Z,12.25
2019-05-10T13:38:03.997Z,12.85
2019-05-10T13:40:29.778Z,11.68
2019-05-10T13:42:59.697Z,13.38
2019-05-10T13:45:31.697Z,11.90
2019-05-10T13:48:01.046Z,12.85
2019-05-10T13:50:31.080Z,9.78
2019-05-10T13:53:00.949Z,9.53
2019-05-10T13:55:30.814Z,8.75
2019-05-10T13:58:00.714Z,9.23
2019-05-10T14:00:33.963Z,7.55
2019-05-10T14:03:04.888Z,8.73
2019-05-10T14:05:33.979Z,10.20
2019-05-10T14:08:03.851Z,10.70
2019-05-10T14:10:33.714Z,9.25
2019-05-10T14:13:04.142Z,8.10
2019-05-10T14:15:34.886Z,8.23
2019-05-10T14:18:05.733Z,6.87
2019-05-10T14:20:35.646Z,9.05
2019-05-10T14:23:05.529Z,7.40
2019-05-10T14:25:38.698Z,9.03
2019-05-10T14:28:09.733Z,8.68
2019-05-10T14:30:38.610Z,9.83
2019-05-10T14:33:13.995Z,10.45
2019-05-10T14:35:40.091Z,10.55
2019-05-10T14:38:10.681Z,9.30
2019-05-10T14:40:40.723Z,8.95
2019-05-10T14:43:10.745Z,10.08
2019-05-10T14:45:40.622Z,11.48
2019-05-10T14:48:10.492Z,11.05
2019-05-10T14:50:40.449Z,9.18
2019-05-10T14:53:10.299Z,7.75
2019-05-10T14:55:40.189Z,10.18
2019-05-10T14:58:10.122Z,10.85
2019-05-10T15:00:40.010Z,10.70
2019-05-10T15:03:09.856Z,9.20
2019-05-10T15:05:39.776Z,10.98
2019-05-10T15:08:09.652Z,10.63
2019-05-10T15:10:41.676Z,10.60
2019-05-10T15:13:30.047Z,9.75
2019-05-10T15:15:59.941Z,10.45
2019-05-10T15:18:29.838Z,9.83
2019-05-10T15:21:00.725Z,8.83
2019-05-10T15:23:30.574Z,8.95
2019-05-10T15:26:10.468Z,9.35
2019-05-10T15:28:34.292Z,12.00
2019-05-10T15:31:03.647Z,9.25
2019-05-10T15:33:33.522Z,10.03
2019-05-10T15:36:03.446Z,8.55
2019-05-10T15:38:33.320Z,8.85
2019-05-10T15:41:03.315Z,8.50
2019-05-10T15:43:33.218Z,7.87
2019-05-10T15:46:03.088Z,11.75
2019-05-10T15:48:36.459Z,9.85
2019-05-10T15:51:04.494Z,8.48
2019-05-10T15:53:34.418Z,10.70
2019-05-10T15:56:05.613Z,11.65
2019-05-10T15:59:23.582Z,9.58
2019-05-10T16:01:07.466Z,9.63
2019-05-10T16:03:37.304Z,9.13
2019-05-10T16:06:07.245Z,10.30
2019-05-10T16:08:37.090Z,10.15
2019-05-10T16:11:17.994Z,9.80
2019-05-10T16:13:38.687Z,9.28
2019-05-10T16:16:08.593Z,8.20
2019-05-10T16:18:39.945Z,8.15
2019-05-10T16:21:15.156Z,7.70
2019-05-10T16:23:46.570Z,8.05
2019-05-10T16:26:17.344Z,8.38
2019-05-10T16:28:44.861Z,8.98
2019-05-10T16:31:14.734Z,9.63
2019-05-10T16:33:48.295Z,8.10
2019-05-10T16:36:16.160Z,9.53
2019-05-10T16:38:46.045Z,8.35
2019-05-10T16:41:15.967Z,8.28
2019-05-10T16:43:45.818Z,8.05
2019-05-10T16:46:15.714Z,7.03
2019-05-10T16:48:45.597Z,7.87
2019-05-10T16:51:15.462Z,6.45
2019-05-10T16:53:45.938Z,8.40
2019-05-10T16:56:19.076Z,9.58
2019-05-10T16:58:52.633Z,6.70
2019-05-10T17:01:25.189Z,7.40
2019-05-10T17:03:59.679Z,8.50
2019-05-10T17:06:23.773Z,6.47
2019-05-10T17:08:53.737Z,6.58
2019-05-10T17:11:23.731Z,6.10
2019-05-10T17:13:55.577Z,8.70
2019-05-10T17:16:25.194Z,8.63
2019-05-10T17:18:55.755Z,6.20
2019-05-10T17:21:28.639Z,8.13
2019-05-10T17:24:03.627Z,8.13
2019-05-10T17:26:33.618Z,6.97
2019-05-10T17:29:07.296Z,7.40
2019-05-10T17:31:39.602Z,7.90
2019-05-10T17:34:07.863Z,6.33
2019-05-10T17:36:37.719Z,6.42
2019-05-10T17:39:08.466Z,7.33
2019-05-10T17:41:38.376Z,7.08
2019-05-10T17:44:08.219Z,6.53
2019-05-10T17:46:38.071Z,6.70
2019-05-10T17:49:08.009Z,6.37
2019-05-10T17:51:37.890Z,5.95
2019-05-10T17:54:07.722Z,4.97
2019-05-10T17:56:38.900Z,6.08
2019-05-10T17:59:12.023Z,5.08
2019-05-10T18:01:40.684Z,9.00
2019-05-10T18:04:10.542Z,5.22
2019-05-10T18:06:40.523Z,5.58
2019-05-10T18:09:10.543Z,6.37
2019-05-10T18:11:43.130Z,6.72
2019-05-10T18:14:17.876Z,7.90
2019-05-10T18:16:47.843Z,7.92
2019-05-10T18:19:19.195Z,8.13
2019-05-10T18:21:54.949Z,7.62
2019-05-10T18:24:21.916Z,7.05
2019-05-10T18:27:08.852Z,7.75
2019-05-10T18:29:34.504Z,8.15
2019-05-10T18:32:04.446Z,9.33
2019-05-10T18:34:35.499Z,8.28
2019-05-10T18:37:07.036Z,9.15
2019-05-10T18:39:37.362Z,9.05
2019-05-10T18:42:32.474Z,7.87
2019-05-10T18:45:03.020Z,8.50
2019-05-10T18:47:34.403Z,11.20
2019-05-10T18:50:04.957Z,8.97
2019-05-10T18:52:34.837Z,10.20
2019-05-10T18:55:04.973Z,8.90
2019-05-10T18:57:34.903Z,10.40
2019-05-10T19:00:05.673Z,8.83
2019-05-10T19:02:35.942Z,10.20
2019-05-10T19:05:06.582Z,9.60
2019-05-10T19:07:36.782Z,9.47
2019-05-10T19:10:07.573Z,9.00
2019-05-10T19:12:38.366Z,9.60
2019-05-10T19:15:15.078Z,10.33
2019-05-10T19:17:45.903Z,13.77
2019-05-10T19:20:16.167Z,9.47
2019-05-10T19:22:44.810Z,9.97
2019-05-10T19:25:14.916Z,9.70
2019-05-10T19:27:50.513Z,10.57
2019-05-10T19:30:22.449Z,9.43
2019-05-10T19:32:51.179Z,9.47
2019-05-10T19:35:23.074Z,9.17
2019-05-10T19:37:53.486Z,8.03
2019-05-10T19:40:23.873Z,9.63
2019-05-10T19:42:53.898Z,9.93
2019-05-10T19:45:25.744Z,9.77
2019-05-10T19:47:57.229Z,10.97
2019-05-10T19:50:30.952Z,10.40
2019-05-10T19:53:03.731Z,11.87
2019-05-10T19:55:32.275Z,11.47
2019-05-10T19:58:02.460Z,11.77
2019-05-10T20:00:32.746Z,14.07
2019-05-10T20:03:02.912Z,13.13
2019-05-10T20:05:33.229Z,15.83
2019-05-10T20:08:03.509Z,14.77
2019-05-10T20:10:38.110Z,12.50
2019-05-10T20:13:08.494Z,12.50
2019-05-10T20:15:40.611Z,12.63
2019-05-10T20:18:11.045Z,12.53
2019-05-10T20:20:41.264Z,12.50
2019-05-10T20:23:14.353Z,13.47
2019-05-10T20:25:44.619Z,13.33
2019-05-10T20:28:18.363Z,13.80
2019-05-10T20:30:49.576Z,12.10
2019-05-10T20:33:20.457Z,11.40
2019-05-10T20:35:55.565Z,13.70
2019-05-10T20:38:25.882Z,11.13
2019-05-10T20:40:56.198Z,11.00
2019-05-10T20:43:26.725Z,11.80
2019-05-10T20:45:57.183Z,10.40
2019-05-10T20:48:27.433Z,15.00
2019-05-10T20:51:02.911Z,10.23
2019-05-10T20:53:33.292Z,9.20
2019-05-10T20:56:03.146Z,10.93
2019-05-10T20:58:33.172Z,11.17
2019-05-10T21:01:03.015Z,8.90
2019-05-10T21:03:33.242Z,8.73
2019-05-10T21:06:03.160Z,10.07
2019-05-10T21:08:33.026Z,9.03
2019-05-10T21:11:03.007Z,10.13
2019-05-10T21:13:32.984Z,11.97
2019-05-10T21:16:02.853Z,12.97
2019-05-10T21:18:32.748Z,12.33
2019-05-10T21:21:02.704Z,10.27
2019-05-10T21:23:32.925Z,9.77
2019-05-10T21:26:03.198Z,10.70
2019-05-10T21:28:33.553Z,9.67
2019-05-10T21:31:03.896Z,13.77
2019-05-10T21:33:34.218Z,11.33
2019-05-10T21:36:04.528Z,8.53
2019-05-10T21:38:34.796Z,11.20
2019-05-10T21:41:04.979Z,9.13
2019-05-10T21:43:35.278Z,8.17
2019-05-10T21:46:05.479Z,10.77
2019-05-10T21:48:35.743Z,8.53
2019-05-10T21:51:05.972Z,8.53
2019-05-10T21:53:36.164Z,12.63
2019-05-10T21:56:06.358Z,9.03
2019-05-10T21:58:36.626Z,10.83
2019-05-10T22:01:07.266Z,13.70
2019-05-10T22:03:37.497Z,9.73
2019-05-10T22:06:07.753Z,12.87
2019-05-10T22:08:48.839Z,10.83
2019-05-10T22:11:09.830Z,12.30
2019-05-10T22:13:39.974Z,15.20
2019-05-10T22:16:10.138Z,13.07
2019-05-10T22:18:40.275Z,11.63
2019-05-10T22:21:10.573Z,9.47
2019-05-10T22:23:40.782Z,13.10
2019-05-10T22:26:10.957Z,7.63
2019-05-10T22:28:41.244Z,13.20
2019-05-10T22:31:11.534Z,11.03
2019-05-10T22:33:42.803Z,10.83
2019-05-10T22:36:13.129Z,10.37
2019-05-10T22:38:43.554Z,9.67
2019-05-10T22:41:13.645Z,13.30
2019-05-10T22:43:43.981Z,15.03
2019-05-10T22:46:14.246Z,14.27
2019-05-10T22:48:44.418Z,10.57
2019-05-10T22:51:14.609Z,13.23
2019-05-10T22:53:58.613Z,16.50
2019-05-10T22:56:16.698Z,14.90
2019-05-10T22:58:46.903Z,11.50
2019-05-10T23:01:17.327Z,7.67
2019-05-10T23:03:47.562Z,13.67
2019-05-10T23:06:17.847Z,13.97
2019-05-10T23:08:48.154Z,14.63
2019-05-10T23:11:18.387Z,10.57
2019-05-10T23:13:48.719Z,11.73
2019-05-10T23:16:19.050Z,7.43
2019-05-10T23:18:49.275Z,12.90
2019-05-10T23:21:19.507Z,10.23
2019-05-10T23:23:49.714Z,14.83
2019-05-10T23:26:19.898Z,14.43
2019-05-10T23:28:50.154Z,11.13
2019-05-10T23:31:20.380Z,14.03
2019-05-10T23:33:50.586Z,13.80
2019-05-10T23:36:21.858Z,14.83
2019-05-10T23:38:52.401Z,7.23
2019-05-10T23:41:22.594Z,8.83
2019-05-10T23:43:52.746Z,10.47
2019-05-10T23:46:22.770Z,12.07
2019-05-10T23:48:53.024Z,9.03
2019-05-10T23:51:23.154Z,14.87
2019-05-10T23:53:53.418Z,10.40
2019-05-10T23:56:23.629Z,13.30
2019-05-10T23:58:53.876Z,13.43
